sensor_id;sensor_type;location;lat;lon;timestamp;P1;durP1;ratioP1;P2;durP2;ratioP2
73850;SDS011;62190;51.548;5.688;2024-01-15T00:01:22;11.48;;;5.90;;
73850;SDS011;62190;51.548;5.688;2024-01-15T00:03:53;14.95;;;7.37;;
73850;SDS011;62190;51.548;5.688;2024-01-15T00:06:20;16.62;;;7.45;;
73850;SDS011;62190;51.548;5.688;2024-01-15T00:08:47;14.85;;;7.12;;
73850;SDS011;62190;51.548;5.688;2024-01-15T00:11:16;12.85;;;7.33;;
73850;SDS011;62190;51.548;5.688;2024-01-15T00:13:45;23.55;;;8.30;;
73850;SDS011;62190;51.548;5.688;2024-01-15T00:16:13;18.62;;;7.58;;
73850;SDS011;62190;51.548;5.688;2024-01-15T00:18:40;19.98;;;8.40;;
73850;SDS011;62190;51.548;5.688;2024-01-15T00:21:07;18.10;;;7.00;;
73850;SDS011;62190;51.548;5.688;2024-01-15T00:23:35;21.10;;;8.53;;
73850;SDS011;62190;51.548;5.688;2024-01-15T00:26:02;20.80;;;9.40;;
73850;SDS011;62190;51.548;5.688;2024-01-15T00:28:31;15.68;;;7.92;;
73850;SDS011;62190;51.548;5.688;2024-01-15T00:30:59;18.60;;;8.33;;
73850;SDS011;62190;51.548;5.688;2024-01-15T00:33:28;22.75;;;9.33;;
73850;SDS011;62190;51.548;5.688;2024-01-15T00:36:01;19.50;;;8.60;;
73850;SDS011;62190;51.548;5.688;2024-01-15T00:38:28;23.18;;;9.05;;
73850;SDS011;62190;51.548;5.688;2024-01-15T00:40:57;27.42;;;10.20;;
73850;SDS011;62190;51.548;5.688;2024-01-15T00:43:28;23.12;;;9.60;;
73850;SDS011;62190;51.548;5.688;2024-01-15T00:45:56;23.70;;;9.98;;
73850;SDS011;62190;51.548;5.688;2024-01-15T00:48:23;22.37;;;9.75;;
73850;SDS011;62190;51.548;5.688;2024-01-15T00:50:50;22.67;;;7.67;;
73850;SDS011;62190;51.548;5.688;2024-01-15T00:53:22;16.93;;;8.58;;
73850;SDS011;62190;51.548;5.688;2024-01-15T00:55:49;29.55;;;9.03;;
73850;SDS011;62190;51.548;5.688;2024-01-15T00:58:16;22.55;;;9.38;;
73850;SDS011;62190;51.548;5.688;2024-01-15T01:00:44;25.65;;;8.85;;
73850;SDS011;62190;51.548;5.688;2024-01-15T01:03:12;24.35;;;9.30;;
73850;SDS011;62190;51.548;5.688;2024-01-15T01:05:39;22.07;;;9.73;;
73850;SDS011;62190;51.548;5.688;2024-01-15T01:08:06;16.60;;;7.85;;
73850;SDS011;62190;51.548;5.688;2024-01-15T01:10:34;17.60;;;7.00;;
73850;SDS011;62190;51.548;5.688;2024-01-15T01:13:01;22.60;;;8.48;;
73850;SDS011;62190;51.548;5.688;2024-01-15T01:15:28;20.95;;;8.38;;
73850;SDS011;62190;51.548;5.688;2024-01-15T01:17:56;16.97;;;7.20;;
73850;SDS011;62190;51.548;5.688;2024-01-15T01:20:23;15.05;;;6.87;;
73850;SDS011;62190;51.548;5.688;2024-01-15T01:22:50;16.80;;;7.55;;
73850;SDS011;62190;51.548;5.688;2024-01-15T01:25:19;17.80;;;7.40;;
73850;SDS011;62190;51.548;5.688;2024-01-15T01:27:46;15.98;;;6.22;;
73850;SDS011;62190;51.548;5.688;2024-01-15T01:30:13;15.05;;;5.65;;
73850;SDS011;62190;51.548;5.688;2024-01-15T01:32:41;10.72;;;4.87;;
73850;SDS011;62190;51.548;5.688;2024-01-15T01:35:08;9.75;;;4.33;;
73850;SDS011;62190;51.548;5.688;2024-01-15T01:37:37;11.08;;;4.28;;
73850;SDS011;62190;51.548;5.688;2024-01-15T01:40:05;6.15;;;3.58;;
73850;SDS011;62190;51.548;5.688;2024-01-15T01:42:33;6.92;;;3.67;;
73850;SDS011;62190;51.548;5.688;2024-01-15T01:45:00;10.18;;;3.70;;
73850;SDS011;62190;51.548;5.688;2024-01-15T01:47:27;6.50;;;2.37;;
73850;SDS011;62190;51.548;5.688;2024-01-15T01:49:54;4.78;;;1.92;;
73850;SDS011;62190;51.548;5.688;2024-01-15T01:52:22;6.67;;;2.20;;
73850;SDS011;62190;51.548;5.688;2024-01-15T01:54:49;4.05;;;1.67;;
73850;SDS011;62190;51.548;5.688;2024-01-15T01:57:17;3.75;;;1.75;;
73850;SDS011;62190;51.548;5.688;2024-01-15T01:59:45;3.65;;;1.32;;
73850;SDS011;62190;51.548;5.688;2024-01-15T02:02:13;2.40;;;0.90;;
73850;SDS011;62190;51.548;5.688;2024-01-15T02:04:40;3.37;;;1.50;;
73850;SDS011;62190;51.548;5.688;2024-01-15T02:07:08;1.95;;;0.70;;
73850;SDS011;62190;51.548;5.688;2024-01-15T02:09:35;4.22;;;1.10;;
73850;SDS011;62190;51.548;5.688;2024-01-15T02:12:02;2.72;;;0.90;;
73850;SDS011;62190;51.548;5.688;2024-01-15T02:14:30;4.12;;;0.80;;
73850;SDS011;62190;51.548;5.688;2024-01-15T02:16:57;1.37;;;0.60;;
73850;SDS011;62190;51.548;5.688;2024-01-15T02:19:25;4.20;;;0.98;;
73850;SDS011;62190;51.548;5.688;2024-01-15T02:21:52;1.65;;;0.75;;
73850;SDS011;62190;51.548;5.688;2024-01-15T02:24:19;2.45;;;0.80;;
73850;SDS011;62190;51.548;5.688;2024-01-15T02:26:47;5.28;;;1.10;;
73850;SDS011;62190;51.548;5.688;2024-01-15T02:31:42;2.10;;;0.60;;
73850;SDS011;62190;51.548;5.688;2024-01-15T02:34:09;4.42;;;0.88;;
73850;SDS011;62190;51.548;5.688;2024-01-15T02:36:36;1.80;;;0.70;;
73850;SDS011;62190;51.548;5.688;2024-01-15T02:39:03;1.98;;;0.70;;
73850;SDS011;62190;51.548;5.688;2024-01-15T02:41:31;1.72;;;1.17;;
73850;SDS011;62190;51.548;5.688;2024-01-15T02:44:01;1.25;;;0.57;;
73850;SDS011;62190;51.548;5.688;2024-01-15T02:46:28;3.35;;;0.72;;
73850;SDS011;62190;51.548;5.688;2024-01-15T02:48:55;4.55;;;1.82;;
73850;SDS011;62190;51.548;5.688;2024-01-15T02:51:23;4.33;;;0.75;;
73850;SDS011;62190;51.548;5.688;2024-01-15T02:53:50;5.70;;;0.80;;
73850;SDS011;62190;51.548;5.688;2024-01-15T02:56:18;1.67;;;0.72;;
73850;SDS011;62190;51.548;5.688;2024-01-15T02:58:45;1.95;;;0.72;;
73850;SDS011;62190;51.548;5.688;2024-01-15T03:01:13;5.55;;;0.70;;
73850;SDS011;62190;51.548;5.688;2024-01-15T03:03:40;1.70;;;0.60;;
73850;SDS011;62190;51.548;5.688;2024-01-15T03:06:07;1.37;;;0.57;;
73850;SDS011;62190;51.548;5.688;2024-01-15T03:08:35;2.67;;;0.70;;
73850;SDS011;62190;51.548;5.688;2024-01-15T03:11:02;2.17;;;0.70;;
73850;SDS011;62190;51.548;5.688;2024-01-15T03:13:30;5.10;;;0.93;;
73850;SDS011;62190;51.548;5.688;2024-01-15T03:15:57;1.20;;;0.45;;
73850;SDS011;62190;51.548;5.688;2024-01-15T03:18:24;1.40;;;0.40;;
73850;SDS011;62190;51.548;5.688;2024-01-15T03:20:52;0.78;;;0.57;;
73850;SDS011;62190;51.548;5.688;2024-01-15T03:23:19;1.22;;;0.37;;
73850;SDS011;62190;51.548;5.688;2024-01-15T03:25:46;7.85;;;0.62;;
73850;SDS011;62190;51.548;5.688;2024-01-15T03:28:14;5.05;;;0.45;;
73850;SDS011;62190;51.548;5.688;2024-01-15T03:30:41;3.65;;;0.98;;
73850;SDS011;62190;51.548;5.688;2024-01-15T03:33:09;1.02;;;0.60;;
73850;SDS011;62190;51.548;5.688;2024-01-15T03:35:39;2.72;;;0.30;;
73850;SDS011;62190;51.548;5.688;2024-01-15T03:38:06;2.87;;;0.42;;
73850;SDS011;62190;51.548;5.688;2024-01-15T03:40:36;1.40;;;0.55;;
73850;SDS011;62190;51.548;5.688;2024-01-15T03:43:03;0.35;;;0.20;;
73850;SDS011;62190;51.548;5.688;2024-01-15T03:45:33;1.42;;;0.60;;
73850;SDS011;62190;51.548;5.688;2024-01-15T03:48:01;1.42;;;0.70;;
73850;SDS011;62190;51.548;5.688;2024-01-15T03:50:28;1.52;;;0.50;;
73850;SDS011;62190;51.548;5.688;2024-01-15T03:52:55;1.50;;;0.68;;
73850;SDS011;62190;51.548;5.688;2024-01-15T03:55:23;1.35;;;0.42;;
73850;SDS011;62190;51.548;5.688;2024-01-15T03:57:50;0.93;;;0.50;;
73850;SDS011;62190;51.548;5.688;2024-01-15T04:00:17;2.15;;;0.42;;
73850;SDS011;62190;51.548;5.688;2024-01-15T04:02:45;0.60;;;0.20;;
73850;SDS011;62190;51.548;5.688;2024-01-15T04:05:12;1.20;;;0.60;;
73850;SDS011;62190;51.548;5.688;2024-01-15T04:07:39;2.87;;;0.60;;
73850;SDS011;62190;51.548;5.688;2024-01-15T04:10:07;4.53;;;0.60;;
73850;SDS011;62190;51.548;5.688;2024-01-15T04:12:34;5.58;;;0.82;;
73850;SDS011;62190;51.548;5.688;2024-01-15T04:15:02;0.98;;;0.45;;
73850;SDS011;62190;51.548;5.688;2024-01-15T04:17:29;3.02;;;1.12;;
73850;SDS011;62190;51.548;5.688;2024-01-15T04:19:57;2.85;;;0.80;;
73850;SDS011;62190;51.548;5.688;2024-01-15T04:22:24;3.08;;;0.80;;
73850;SDS011;62190;51.548;5.688;2024-01-15T04:24:54;1.47;;;0.45;;
73850;SDS011;62190;51.548;5.688;2024-01-15T04:27:21;2.90;;;0.90;;
73850;SDS011;62190;51.548;5.688;2024-01-15T04:29:49;3.92;;;0.75;;
73850;SDS011;62190;51.548;5.688;2024-01-15T04:32:16;1.92;;;0.62;;
73850;SDS011;62190;51.548;5.688;2024-01-15T04:34:43;0.95;;;0.60;;
73850;SDS011;62190;51.548;5.688;2024-01-15T04:37:11;3.47;;;0.33;;
73850;SDS011;62190;51.548;5.688;2024-01-15T04:39:40;3.75;;;1.32;;
73850;SDS011;62190;51.548;5.688;2024-01-15T04:42:10;2.22;;;0.47;;
73850;SDS011;62190;51.548;5.688;2024-01-15T04:44:37;1.87;;;0.70;;
73850;SDS011;62190;51.548;5.688;2024-01-15T04:47:04;4.58;;;0.95;;
73850;SDS011;62190;51.548;5.688;2024-01-15T04:49:32;1.95;;;0.95;;
73850;SDS011;62190;51.548;5.688;2024-01-15T04:52:00;4.12;;;0.78;;
73850;SDS011;62190;51.548;5.688;2024-01-15T04:54:29;6.47;;;1.07;;
73850;SDS011;62190;51.548;5.688;2024-01-15T04:56:56;1.27;;;0.57;;
73850;SDS011;62190;51.548;5.688;2024-01-15T04:59:24;3.58;;;1.20;;
73850;SDS011;62190;51.548;5.688;2024-01-15T05:01:51;1.30;;;0.60;;
73850;SDS011;62190;51.548;5.688;2024-01-15T05:04:18;2.87;;;0.80;;
73850;SDS011;62190;51.548;5.688;2024-01-15T05:06:45;1.00;;;0.53;;
73850;SDS011;62190;51.548;5.688;2024-01-15T05:09:13;1.95;;;0.50;;
73850;SDS011;62190;51.548;5.688;2024-01-15T05:11:41;2.22;;;1.10;;
73850;SDS011;62190;51.548;5.688;2024-01-15T05:14:09;1.37;;;0.55;;
73850;SDS011;62190;51.548;5.688;2024-01-15T05:16:39;1.37;;;0.70;;
73850;SDS011;62190;51.548;5.688;2024-01-15T05:19:08;0.68;;;0.68;;
73850;SDS011;62190;51.548;5.688;2024-01-15T05:21:35;3.98;;;0.65;;
73850;SDS011;62190;51.548;5.688;2024-01-15T05:24:03;1.25;;;0.88;;
73850;SDS011;62190;51.548;5.688;2024-01-15T05:26:30;0.60;;;0.23;;
73850;SDS011;62190;51.548;5.688;2024-01-15T05:28:57;2.12;;;0.57;;
73850;SDS011;62190;51.548;5.688;2024-01-15T05:31:25;3.30;;;0.25;;
73850;SDS011;62190;51.548;5.688;2024-01-15T05:33:52;1.05;;;0.42;;
73850;SDS011;62190;51.548;5.688;2024-01-15T05:36:21;3.90;;;0.42;;
73850;SDS011;62190;51.548;5.688;2024-01-15T05:38:48;1.87;;;1.02;;
73850;SDS011;62190;51.548;5.688;2024-01-15T05:41:15;4.45;;;0.30;;
73850;SDS011;62190;51.548;5.688;2024-01-15T05:43:43;2.37;;;0.30;;
73850;SDS011;62190;51.548;5.688;2024-01-15T05:46:11;2.25;;;0.40;;
73850;SDS011;62190;51.548;5.688;2024-01-15T05:48:39;1.62;;;0.20;;
73850;SDS011;62190;51.548;5.688;2024-01-15T05:51:08;0.50;;;0.20;;
73850;SDS011;62190;51.548;5.688;2024-01-15T05:53:36;1.02;;;0.40;;
73850;SDS011;62190;51.548;5.688;2024-01-15T05:56:08;7.03;;;0.85;;
73850;SDS011;62190;51.548;5.688;2024-01-15T05:58:37;0.98;;;0.50;;
73850;SDS011;62190;51.548;5.688;2024-01-15T06:01:10;0.42;;;0.40;;
73850;SDS011;62190;51.548;5.688;2024-01-15T06:03:37;1.32;;;0.60;;
73850;SDS011;62190;51.548;5.688;2024-01-15T06:06:05;4.45;;;0.65;;
73850;SDS011;62190;51.548;5.688;2024-01-15T06:08:37;2.95;;;0.70;;
73850;SDS011;62190;51.548;5.688;2024-01-15T06:11:01;0.60;;;0.57;;
73850;SDS011;62190;51.548;5.688;2024-01-15T06:13:28;2.45;;;0.70;;
73850;SDS011;62190;51.548;5.688;2024-01-15T06:15:56;2.20;;;0.62;;
73850;SDS011;62190;51.548;5.688;2024-01-15T06:18:23;3.02;;;0.90;;
73850;SDS011;62190;51.548;5.688;2024-01-15T06:20:50;0.75;;;0.40;;
73850;SDS011;62190;51.548;5.688;2024-01-15T06:23:18;0.78;;;0.60;;
73850;SDS011;62190;51.548;5.688;2024-01-15T06:25:47;1.70;;;0.60;;
73850;SDS011;62190;51.548;5.688;2024-01-15T06:28:15;2.77;;;0.60;;
73850;SDS011;62190;51.548;5.688;2024-01-15T06:30:43;5.87;;;0.70;;
73850;SDS011;62190;51.548;5.688;2024-01-15T06:33:10;2.30;;;0.70;;
73850;SDS011;62190;51.548;5.688;2024-01-15T06:35:39;1.00;;;0.55;;
73850;SDS011;62190;51.548;5.688;2024-01-15T06:38:08;3.20;;;0.60;;
73850;SDS011;62190;51.548;5.688;2024-01-15T06:40:36;2.35;;;1.00;;
73850;SDS011;62190;51.548;5.688;2024-01-15T06:43:04;0.98;;;0.47;;
73850;SDS011;62190;51.548;5.688;2024-01-15T06:45:31;2.27;;;0.85;;
73850;SDS011;62190;51.548;5.688;2024-01-15T06:48:03;3.05;;;1.35;;
73850;SDS011;62190;51.548;5.688;2024-01-15T06:50:35;4.90;;;1.20;;
73850;SDS011;62190;51.548;5.688;2024-01-15T06:53:02;2.70;;;1.00;;
73850;SDS011;62190;51.548;5.688;2024-01-15T06:55:30;1.98;;;1.00;;
73850;SDS011;62190;51.548;5.688;2024-01-15T06:57:57;4.75;;;1.07;;
73850;SDS011;62190;51.548;5.688;2024-01-15T07:00:25;2.65;;;0.93;;
73850;SDS011;62190;51.548;5.688;2024-01-15T07:02:53;4.33;;;1.22;;
73850;SDS011;62190;51.548;5.688;2024-01-15T07:05:23;4.22;;;0.60;;
73850;SDS011;62190;51.548;5.688;2024-01-15T07:07:51;3.17;;;1.10;;
73850;SDS011;62190;51.548;5.688;2024-01-15T07:10:18;4.95;;;1.10;;
73850;SDS011;62190;51.548;5.688;2024-01-15T07:12:47;1.95;;;0.98;;
73850;SDS011;62190;51.548;5.688;2024-01-15T07:15:14;4.08;;;0.85;;
73850;SDS011;62190;51.548;5.688;2024-01-15T07:17:43;2.50;;;1.00;;
73850;SDS011;62190;51.548;5.688;2024-01-15T07:20:10;1.30;;;0.72;;
73850;SDS011;62190;51.548;5.688;2024-01-15T07:22:38;2.12;;;1.20;;
73850;SDS011;62190;51.548;5.688;2024-01-15T07:25:05;1.30;;;0.78;;
73850;SDS011;62190;51.548;5.688;2024-01-15T07:27:33;3.25;;;0.95;;
73850;SDS011;62190;51.548;5.688;2024-01-15T07:30:00;1.25;;;0.65;;
73850;SDS011;62190;51.548;5.688;2024-01-15T07:32:29;4.95;;;1.00;;
73850;SDS011;62190;51.548;5.688;2024-01-15T07:34:57;0.93;;;0.62;;
73850;SDS011;62190;51.548;5.688;2024-01-15T07:37:25;2.15;;;0.70;;
73850;SDS011;62190;51.548;5.688;2024-01-15T07:39:52;1.50;;;0.70;;
73850;SDS011;62190;51.548;5.688;2024-01-15T07:42:19;1.57;;;0.70;;
73850;SDS011;62190;51.548;5.688;2024-01-15T07:44:46;1.75;;;1.00;;
73850;SDS011;62190;51.548;5.688;2024-01-15T07:47:14;3.33;;;1.42;;
73850;SDS011;62190;51.548;5.688;2024-01-15T07:49:41;1.55;;;0.80;;
73850;SDS011;62190;51.548;5.688;2024-01-15T07:52:09;1.05;;;0.53;;
73850;SDS011;62190;51.548;5.688;2024-01-15T07:54:38;2.58;;;1.22;;
73850;SDS011;62190;51.548;5.688;2024-01-15T07:57:05;2.45;;;0.90;;
73850;SDS011;62190;51.548;5.688;2024-01-15T07:59:33;3.58;;;0.80;;
73850;SDS011;62190;51.548;5.688;2024-01-15T08:02:02;1.65;;;1.00;;
73850;SDS011;62190;51.548;5.688;2024-01-15T08:04:33;3.65;;;1.40;;
73850;SDS011;62190;51.548;5.688;2024-01-15T08:07:00;1.80;;;1.02;;
73850;SDS011;62190;51.548;5.688;2024-01-15T08:09:30;4.80;;;1.67;;
73850;SDS011;62190;51.548;5.688;2024-01-15T08:11:59;2.55;;;1.50;;
73850;SDS011;62190;51.548;5.688;2024-01-15T08:14:26;5.47;;;1.55;;
73850;SDS011;62190;51.548;5.688;2024-01-15T08:16:54;4.45;;;1.92;;
73850;SDS011;62190;51.548;5.688;2024-01-15T08:19:21;3.52;;;2.02;;
73850;SDS011;62190;51.548;5.688;2024-01-15T08:21:49;6.28;;;2.85;;
73850;SDS011;62190;51.548;5.688;2024-01-15T08:24:19;5.47;;;2.87;;
73850;SDS011;62190;51.548;5.688;2024-01-15T08:26:46;6.55;;;3.20;;
73850;SDS011;62190;51.548;5.688;2024-01-15T08:29:26;6.70;;;3.25;;
73850;SDS011;62190;51.548;5.688;2024-01-15T08:31:51;6.62;;;2.77;;
73850;SDS011;62190;51.548;5.688;2024-01-15T08:34:20;6.62;;;3.15;;
73850;SDS011;62190;51.548;5.688;2024-01-15T08:36:47;6.40;;;2.87;;
73850;SDS011;62190;51.548;5.688;2024-01-15T08:39:15;6.15;;;3.08;;
73850;SDS011;62190;51.548;5.688;2024-01-15T08:41:43;9.15;;;3.45;;
73850;SDS011;62190;51.548;5.688;2024-01-15T08:44:12;6.12;;;3.47;;
73850;SDS011;62190;51.548;5.688;2024-01-15T08:46:40;5.78;;;3.20;;
73850;SDS011;62190;51.548;5.688;2024-01-15T08:49:07;4.78;;;2.85;;
73850;SDS011;62190;51.548;5.688;2024-01-15T08:51:35;6.55;;;3.37;;
73850;SDS011;62190;51.548;5.688;2024-01-15T08:54:06;7.00;;;3.20;;
73850;SDS011;62190;51.548;5.688;2024-01-15T08:56:38;6.37;;;2.83;;
73850;SDS011;62190;51.548;5.688;2024-01-15T08:59:14;5.78;;;2.83;;
73850;SDS011;62190;51.548;5.688;2024-01-15T09:01:44;4.42;;;2.75;;
73850;SDS011;62190;51.548;5.688;2024-01-15T09:04:14;9.98;;;3.42;;
73850;SDS011;62190;51.548;5.688;2024-01-15T09:06:46;7.65;;;3.42;;
73850;SDS011;62190;51.548;5.688;2024-01-15T09:09:17;6.40;;;3.05;;
73850;SDS011;62190;51.548;5.688;2024-01-15T09:11:49;8.28;;;3.58;;
73850;SDS011;62190;51.548;5.688;2024-01-15T09:14:15;6.15;;;3.10;;
73850;SDS011;62190;51.548;5.688;2024-01-15T09:16:42;5.33;;;3.15;;
73850;SDS011;62190;51.548;5.688;2024-01-15T09:19:09;8.10;;;3.08;;
73850;SDS011;62190;51.548;5.688;2024-01-15T09:21:38;5.90;;;3.67;;
73850;SDS011;62190;51.548;5.688;2024-01-15T09:24:06;8.70;;;3.90;;
73850;SDS011;62190;51.548;5.688;2024-01-15T09:26:33;5.55;;;3.47;;
73850;SDS011;62190;51.548;5.688;2024-01-15T09:29:02;7.80;;;4.37;;
73850;SDS011;62190;51.548;5.688;2024-01-15T09:31:30;7.75;;;3.83;;
73850;SDS011;62190;51.548;5.688;2024-01-15T09:33:57;6.20;;;3.65;;
73850;SDS011;62190;51.548;5.688;2024-01-15T09:36:25;8.88;;;4.28;;
73850;SDS011;62190;51.548;5.688;2024-01-15T09:38:53;10.32;;;4.20;;
73850;SDS011;62190;51.548;5.688;2024-01-15T09:41:20;6.72;;;3.50;;
73850;SDS011;62190;51.548;5.688;2024-01-15T09:43:47;7.53;;;3.85;;
73850;SDS011;62190;51.548;5.688;2024-01-15T09:46:15;6.95;;;3.50;;
73850;SDS011;62190;51.548;5.688;2024-01-15T09:48:43;6.58;;;3.47;;
73850;SDS011;62190;51.548;5.688;2024-01-15T09:51:10;6.33;;;3.17;;
73850;SDS011;62190;51.548;5.688;2024-01-15T09:53:38;9.60;;;2.87;;
73850;SDS011;62190;51.548;5.688;2024-01-15T09:56:06;6.70;;;2.45;;
73850;SDS011;62190;51.548;5.688;2024-01-15T09:58:33;3.80;;;1.55;;
73850;SDS011;62190;51.548;5.688;2024-01-15T10:01:03;5.08;;;1.65;;
73850;SDS011;62190;51.548;5.688;2024-01-15T10:03:30;1.70;;;0.78;;
73850;SDS011;62190;51.548;5.688;2024-01-15T10:05:59;4.45;;;0.60;;
73850;SDS011;62190;51.548;5.688;2024-01-15T10:08:28;5.22;;;0.95;;
73850;SDS011;62190;51.548;5.688;2024-01-15T10:10:55;1.35;;;0.70;;
73850;SDS011;62190;51.548;5.688;2024-01-15T10:13:23;0.70;;;0.30;;
73850;SDS011;62190;51.548;5.688;2024-01-15T10:15:51;7.92;;;0.42;;
73850;SDS011;62190;51.548;5.688;2024-01-15T10:18:18;0.72;;;0.50;;
73850;SDS011;62190;51.548;5.688;2024-01-15T10:20:45;6.25;;;0.50;;
73850;SDS011;62190;51.548;5.688;2024-01-15T10:23:14;2.95;;;0.50;;
73850;SDS011;62190;51.548;5.688;2024-01-15T10:25:44;1.67;;;0.62;;
73850;SDS011;62190;51.548;5.688;2024-01-15T10:28:13;1.27;;;0.80;;
73850;SDS011;62190;51.548;5.688;2024-01-15T10:30:40;4.72;;;0.40;;
73850;SDS011;62190;51.548;5.688;2024-01-15T10:33:08;5.05;;;0.50;;
73850;SDS011;62190;51.548;5.688;2024-01-15T10:35:35;4.33;;;0.90;;
73850;SDS011;62190;51.548;5.688;2024-01-15T10:38:03;2.40;;;0.90;;
73850;SDS011;62190;51.548;5.688;2024-01-15T10:40:33;1.45;;;0.45;;
73850;SDS011;62190;51.548;5.688;2024-01-15T10:43:00;4.20;;;0.85;;
73850;SDS011;62190;51.548;5.688;2024-01-15T10:45:36;4.78;;;1.55;;
73850;SDS011;62190;51.548;5.688;2024-01-15T10:48:04;2.70;;;1.10;;
73850;SDS011;62190;51.548;5.688;2024-01-15T10:51:19;3.83;;;1.32;;
73850;SDS011;62190;51.548;5.688;2024-01-15T10:53:25;3.60;;;0.45;;
73850;SDS011;62190;51.548;5.688;2024-01-15T10:56:00;3.42;;;0.62;;
73850;SDS011;62190;51.548;5.688;2024-01-15T10:58:33;5.20;;;1.17;;
73850;SDS011;62190;51.548;5.688;2024-01-15T11:01:01;2.85;;;1.12;;
73850;SDS011;62190;51.548;5.688;2024-01-15T11:03:40;4.62;;;1.17;;
73850;SDS011;62190;51.548;5.688;2024-01-15T11:06:18;5.67;;;0.93;;
73850;SDS011;62190;51.548;5.688;2024-01-15T11:08:58;2.42;;;1.30;;
73850;SDS011;62190;51.548;5.688;2024-01-15T11:12:06;2.52;;;0.80;;
73850;SDS011;62190;51.548;5.688;2024-01-15T11:17:16;2.45;;;1.25;;
73850;SDS011;62190;51.548;5.688;2024-01-15T11:20:05;3.47;;;1.55;;
73850;SDS011;62190;51.548;5.688;2024-01-15T11:28:02;4.97;;;2.12;;
73850;SDS011;62190;51.548;5.688;2024-01-15T11:30:26;10.58;;;2.12;;
73850;SDS011;62190;51.548;5.688;2024-01-15T11:33:01;2.83;;;1.70;;
73850;SDS011;62190;51.548;5.688;2024-01-15T11:35:56;6.50;;;1.60;;
73850;SDS011;62190;51.548;5.688;2024-01-15T11:38:33;3.55;;;1.57;;
73850;SDS011;62190;51.548;5.688;2024-01-15T11:40:59;5.33;;;1.47;;
73850;SDS011;62190;51.548;5.688;2024-01-15T11:43:27;1.45;;;1.15;;
73850;SDS011;62190;51.548;5.688;2024-01-15T11:45:56;5.08;;;1.27;;
73850;SDS011;62190;51.548;5.688;2024-01-15T11:48:25;3.35;;;1.00;;
73850;SDS011;62190;51.548;5.688;2024-01-15T11:50:57;3.17;;;0.90;;
73850;SDS011;62190;51.548;5.688;2024-01-15T11:53:36;5.35;;;1.07;;
73850;SDS011;62190;51.548;5.688;2024-01-15T11:56:06;2.08;;;0.85;;
73850;SDS011;62190;51.548;5.688;2024-01-15T11:58:35;1.35;;;1.00;;
73850;SDS011;62190;51.548;5.688;2024-01-15T12:01:03;1.42;;;0.68;;
73850;SDS011;62190;51.548;5.688;2024-01-15T12:03:31;1.65;;;1.07;;
73850;SDS011;62190;51.548;5.688;2024-01-15T12:06:01;1.75;;;0.65;;
73850;SDS011;62190;51.548;5.688;2024-01-15T12:08:30;0.30;;;0.30;;
73850;SDS011;62190;51.548;5.688;2024-01-15T12:11:21;4.58;;;0.80;;
73850;SDS011;62190;51.548;5.688;2024-01-15T12:13:45;0.80;;;0.60;;
73850;SDS011;62190;51.548;5.688;2024-01-15T12:16:17;1.95;;;0.90;;
73850;SDS011;62190;51.548;5.688;2024-01-15T12:18:46;2.85;;;0.72;;
73850;SDS011;62190;51.548;5.688;2024-01-15T12:21:20;0.78;;;0.50;;
73850;SDS011;62190;51.548;5.688;2024-01-15T12:23:46;0.62;;;0.40;;
73850;SDS011;62190;51.548;5.688;2024-01-15T12:26:27;3.52;;;0.65;;
73850;SDS011;62190;51.548;5.688;2024-01-15T12:28:52;1.87;;;0.43;;
73850;SDS011;62190;51.548;5.688;2024-01-15T12:31:23;0.72;;;0.47;;
73850;SDS011;62190;51.548;5.688;2024-01-15T12:33:58;3.08;;;0.60;;
73850;SDS011;62190;51.548;5.688;2024-01-15T12:36:37;0.72;;;0.72;;
73850;SDS011;62190;51.548;5.688;2024-01-15T12:39:05;7.80;;;0.80;;
73850;SDS011;62190;51.548;5.688;2024-01-15T12:41:51;1.20;;;0.80;;
73850;SDS011;62190;51.548;5.688;2024-01-15T12:44:06;1.15;;;1.00;;
73850;SDS011;62190;51.548;5.688;2024-01-15T12:46:38;2.05;;;0.80;;
73850;SDS011;62190;51.548;5.688;2024-01-15T12:49:14;1.65;;;0.98;;
73850;SDS011;62190;51.548;5.688;2024-01-15T12:54:49;1.87;;;0.90;;
73850;SDS011;62190;51.548;5.688;2024-01-15T12:57:18;1.90;;;1.20;;
73850;SDS011;62190;51.548;5.688;2024-01-15T13:00:20;3.83;;;1.60;;
73850;SDS011;62190;51.548;5.688;2024-01-15T13:41:59;2.77;;;1.98;;
73850;SDS011;62190;51.548;5.688;2024-01-15T13:44:25;3.95;;;2.45;;
73850;SDS011;62190;51.548;5.688;2024-01-15T13:46:58;4.58;;;3.05;;
73850;SDS011;62190;51.548;5.688;2024-01-15T13:49:24;3.47;;;2.30;;
73850;SDS011;62190;51.548;5.688;2024-01-15T13:51:52;4.12;;;2.47;;
73850;SDS011;62190;51.548;5.688;2024-01-15T13:54:19;5.78;;;2.27;;
73850;SDS011;62190;51.548;5.688;2024-01-15T13:56:46;3.33;;;2.02;;
73850;SDS011;62190;51.548;5.688;2024-01-15T13:59:15;2.90;;;1.65;;
73850;SDS011;62190;51.548;5.688;2024-01-15T14:01:42;2.95;;;1.80;;
73850;SDS011;62190;51.548;5.688;2024-01-15T14:04:11;5.17;;;2.05;;
73850;SDS011;62190;51.548;5.688;2024-01-15T14:06:39;3.80;;;2.22;;
73850;SDS011;62190;51.548;5.688;2024-01-15T14:09:06;3.10;;;1.95;;
73850;SDS011;62190;51.548;5.688;2024-01-15T14:11:36;6.25;;;1.47;;
73850;SDS011;62190;51.548;5.688;2024-01-15T14:14:03;3.87;;;1.70;;
73850;SDS011;62190;51.548;5.688;2024-01-15T14:16:31;3.72;;;1.57;;
73850;SDS011;62190;51.548;5.688;2024-01-15T14:18:58;2.02;;;1.30;;
73850;SDS011;62190;51.548;5.688;2024-01-15T14:21:27;3.75;;;1.67;;
73850;SDS011;62190;51.548;5.688;2024-01-15T14:23:54;1.92;;;1.17;;
73850;SDS011;62190;51.548;5.688;2024-01-15T14:26:22;2.90;;;1.27;;
73850;SDS011;62190;51.548;5.688;2024-01-15T14:28:49;1.75;;;1.27;;
73850;SDS011;62190;51.548;5.688;2024-01-15T14:31:17;1.85;;;1.07;;
73850;SDS011;62190;51.548;5.688;2024-01-15T14:33:46;5.37;;;1.40;;
73850;SDS011;62190;51.548;5.688;2024-01-15T14:36:13;2.77;;;1.60;;
73850;SDS011;62190;51.548;5.688;2024-01-15T14:38:41;4.83;;;1.67;;
73850;SDS011;62190;51.548;5.688;2024-01-15T14:41:08;2.10;;;1.37;;
73850;SDS011;62190;51.548;5.688;2024-01-15T14:43:35;2.58;;;1.52;;
73850;SDS011;62190;51.548;5.688;2024-01-15T14:46:03;2.50;;;1.40;;
73850;SDS011;62190;51.548;5.688;2024-01-15T14:48:37;1.95;;;1.42;;
73850;SDS011;62190;51.548;5.688;2024-01-15T14:51:00;2.98;;;1.10;;
73850;SDS011;62190;51.548;5.688;2024-01-15T14:53:28;2.87;;;1.50;;
73850;SDS011;62190;51.548;5.688;2024-01-15T14:55:58;1.82;;;1.22;;
73850;SDS011;62190;51.548;5.688;2024-01-15T14:58:25;3.85;;;1.50;;
73850;SDS011;62190;51.548;5.688;2024-01-15T15:00:52;4.65;;;1.87;;
73850;SDS011;62190;51.548;5.688;2024-01-15T15:03:19;3.37;;;2.20;;
73850;SDS011;62190;51.548;5.688;2024-01-15T15:05:46;4.28;;;2.27;;
73850;SDS011;62190;51.548;5.688;2024-01-15T15:08:14;4.70;;;1.80;;
73850;SDS011;62190;51.548;5.688;2024-01-15T15:10:43;4.37;;;1.80;;
73850;SDS011;62190;51.548;5.688;2024-01-15T15:13:10;3.67;;;1.60;;
73850;SDS011;62190;51.548;5.688;2024-01-15T15:15:38;8.70;;;2.17;;
73850;SDS011;62190;51.548;5.688;2024-01-15T15:18:05;6.17;;;2.00;;
73850;SDS011;62190;51.548;5.688;2024-01-15T15:20:32;2.50;;;1.95;;
73850;SDS011;62190;51.548;5.688;2024-01-15T15:23:00;5.47;;;1.90;;
73850;SDS011;62190;51.548;5.688;2024-01-15T15:25:28;4.53;;;1.15;;
73850;SDS011;62190;51.548;5.688;2024-01-15T15:27:55;2.72;;;1.35;;
73850;SDS011;62190;51.548;5.688;2024-01-15T15:30:24;8.23;;;1.85;;
73850;SDS011;62190;51.548;5.688;2024-01-15T15:32:52;3.25;;;1.22;;
73850;SDS011;62190;51.548;5.688;2024-01-15T15:35:19;5.53;;;1.15;;
73850;SDS011;62190;51.548;5.688;2024-01-15T15:37:48;3.17;;;1.22;;
73850;SDS011;62190;51.548;5.688;2024-01-15T15:40:15;4.03;;;1.22;;
73850;SDS011;62190;51.548;5.688;2024-01-15T15:42:43;5.00;;;0.62;;
73850;SDS011;62190;51.548;5.688;2024-01-15T15:45:10;1.65;;;0.80;;
73850;SDS011;62190;51.548;5.688;2024-01-15T15:47:37;3.98;;;1.02;;